Time;durP1;ratioP1;P1;durP2;ratioP2;P2;SDS_P1;SDS_P2;PMS_P1;PMS_P2;Temp;Humidity;BMP_temperature;BMP_pressure;BME280_temperature;BME280_humidity;BME280_pressure;Samples;Min_cycle;Max_cycle;Signal;HPM_P1;HPM_P2
2021/08/24 00:01:39;;;;;;;;;11.25;9.50;;;;;18.16;64.43;101314.19;5016984;28;46374;-89
2021/08/24 00:04:05;;;;;;;;;11.25;7.25;;;;;18.16;65.14;101308.78;5015459;28;45515;-87
2021/08/24 00:06:30;;;;;;;;;10.75;9.50;;;;;17.79;64.81;101250.50;5015272;28;45187;-90
2021/08/24 00:08:56;;;;;;;;;11.00;9.00;;;;;18.06;65.15;101303.25;5015531;28;45290;-90
2021/08/24 00:11:21;;;;;;;;;8.50;8.25;;;;;18.03;64.91;101295.41;5015555;28;46098;-89
2021/08/24 00:13:46;;;;;;;;;12.75;9.00;;;;;17.78;65.32;101254.16;5016572;28;45290;-89
2021/08/24 00:16:14;;;;;;;;;12.75;10.00;;;;;18.00;64.99;101292.91;5015564;28;45212;-89
2021/08/24 00:18:39;;;;;;;;;10.25;8.00;;;;;17.97;65.41;101277.91;5015394;28;45348;-88
2021/08/24 00:21:05;;;;;;;;;9.25;7.25;;;;;17.91;65.16;101268.44;5015227;28;48319;-89
2021/08/24 00:23:31;;;;;;;;;11.50;9.25;;;;;18.06;65.37;101300.56;5015009;28;45270;-89
2021/08/24 00:25:58;;;;;;;;;9.50;8.00;;;;;18.05;65.31;101302.38;5016750;28;45215;-88
2021/08/24 00:28:25;;;;;;;;;7.25;7.25;;;;;18.04;65.57;101297.09;5016637;28;45210;-89
2021/08/24 00:30:50;;;;;;;;;11.00;8.00;;;;;17.84;65.72;101263.59;5014901;28;48087;-89
2021/08/24 00:33:18;;;;;;;;;9.25;9.25;;;;;17.97;65.22;101285.09;5015197;28;45815;-90
2021/08/24 00:35:43;;;;;;;;;10.50;8.25;;;;;17.93;65.59;101281.78;5015248;28;45240;-91
2021/08/24 00:38:12;;;;;;;;;8.25;8.25;;;;;17.88;65.92;101287.44;5016458;28;45204;-88
2021/08/24 00:40:38;;;;;;;;;9.00;8.00;;;;;17.74;65.93;101269.69;5014906;28;48490;-88
2021/08/24 00:43:10;;;;;;;;;7.50;7.50;;;;;17.85;66.25;101282.31;5016487;28;45473;-89
2021/08/24 00:45:38;;;;;;;;;9.00;8.00;;;;;17.87;66.05;101284.88;5015108;28;45293;-89
2021/08/24 00:48:05;;;;;;;;;12.25;7.50;;;;;17.65;65.78;101253.34;5015020;28;45295;-89
2021/08/24 00:50:37;;;;;;;;;7.75;7.00;;;;;17.86;66.03;101291.25;5015953;28;45399;-89
2021/08/24 00:53:07;;;;;;;;;11.75;9.00;;;;;17.83;65.96;101291.47;5014782;28;45888;-88
2021/08/24 00:55:34;;;;;;;;;10.75;7.75;;;;;17.80;66.10;101292.56;5015969;28;45146;-89
2021/08/24 00:58:04;;;;;;;;;10.00;9.00;;;;;17.79;65.94;101290.00;5015067;28;45250;-88
2021/08/24 01:00:31;;;;;;;;;8.00;8.00;;;;;17.74;66.79;101280.44;5014426;28;47732;-88
2021/08/24 01:02:59;;;;;;;;;7.50;7.00;;;;;17.69;66.72;101277.22;5014741;28;45816;-90
2021/08/24 01:05:27;;;;;;;;;8.50;7.75;;;;;17.79;66.15;101290.00;5014668;28;45265;-90
2021/08/24 01:08:01;;;;;;;;;9.00;7.50;;;;;17.67;66.50;101267.53;5015004;28;45196;-88
2021/08/24 01:10:33;;;;;;;;;9.00;7.00;;;;;17.75;66.55;101282.13;5014563;28;47292;-88
2021/08/24 01:13:02;;;;;;;;;9.00;8.00;;;;;17.66;67.06;101271.19;5014895;28;45891;-88
2021/08/24 01:16:08;;;;;;;;;13.00;8.25;;;;;17.39;66.78;101219.34;5016077;28;45261;-88
2021/08/24 01:18:51;;;;;;;;;10.75;8.75;;;;;17.69;66.56;101268.31;4993594;28;45384;-88
2021/08/24 01:21:36;;;;;;;;;8.50;8.00;;;;;17.72;66.91;101266.22;5015952;28;46571;-90
2021/08/24 01:24:40;;;;;;;;;8.25;7.75;;;;;17.72;66.53;101278.81;5018400;28;45800;-88
2021/08/24 01:27:13;;;;;;;;;12.25;10.00;;;;;17.70;66.98;101276.25;4922750;28;45106;-89
2021/08/24 01:30:00;;;;;;;;;9.50;8.25;;;;;17.68;67.03;101274.63;4938311;28;45496;-89
2021/08/24 01:32:53;;;;;;;;;11.25;9.00;;;;;17.66;66.92;101272.06;4938766;28;46681;-89
2021/08/24 01:35:20;;;;;;;;;8.00;6.25;;;;;17.66;67.17;101276.56;4938675;28;45379;-90
2021/08/24 01:38:00;;;;;;;;;9.25;8.00;;;;;17.59;67.16;101260.06;4938443;28;45218;-89
2021/08/24 01:40:43;;;;;;;;;7.25;6.75;;;;;17.54;67.25;101249.63;4938299;28;45349;-90
2021/08/24 01:43:13;;;;;;;;;8.00;7.25;;;;;17.55;67.22;101243.28;4938299;28;47261;-90
2021/08/24 01:45:44;;;;;;;;;8.75;7.00;;;;;17.65;67.14;101253.34;4921896;28;45921;-90
2021/08/24 01:48:19;;;;;;;;;9.50;6.25;;;;;17.55;67.06;101248.66;4922604;28;45287;-90
2021/08/24 01:50:50;;;;;;;;;8.75;8.75;;;;;17.60;67.52;101259.94;4938212;28;45422;-87
2021/08/24 01:53:22;;;;;;;;;10.50;8.75;;;;;17.58;67.57;101259.16;4938505;28;45236;-89
2021/08/24 01:56:01;;;;;;;;;11.25;8.25;;;;;17.45;67.60;101239.56;4938163;28;45466;-89
2021/08/24 01:58:32;;;;;;;;;14.75;9.00;;;;;17.56;67.56;101261.13;4938255;28;45177;-88
2021/08/24 02:01:01;;;;;;;;;9.00;9.00;;;;;17.42;67.89;101242.47;4938042;28;45222;-90
2021/08/24 02:03:32;;;;;;;;;12.50;11.25;;;;;17.45;67.31;101247.63;4973618;28;48117;-90
2021/08/24 02:06:05;;;;;;;;;14.25;9.00;;;;;17.37;67.80;101232.06;5017333;28;45664;-89
2021/08/24 02:08:36;;;;;;;;;9.25;8.25;;;;;17.38;68.01;101235.59;5017516;28;45223;-88
2021/08/24 02:11:04;;;;;;;;;14.00;11.00;;;;;17.47;67.92;101242.13;5017355;28;45284;-89
2021/08/24 02:13:36;;;;;;;;;11.00;9.50;;;;;17.54;68.07;101264.91;5016921;28;47294;-90
2021/08/24 02:16:04;;;;;;;;;11.50;9.50;;;;;17.45;67.71;101236.00;5016916;28;45219;-87
2021/08/24 02:18:37;;;;;;;;;12.25;10.75;;;;;17.57;67.54;101264.66;5016916;28;45363;-90
2021/08/24 02:21:20;;;;;;;;;12.75;9.25;;;;;17.47;67.64;101236.75;5017241;28;45284;-88
2021/08/24 02:23:50;;;;;;;;;10.50;8.25;;;;;17.58;68.01;101263.69;5016885;28;47478;-89
2021/08/24 02:26:18;;;;;;;;;9.50;9.00;;;;;17.58;67.92;101261.84;5016844;28;45528;-88
2021/08/24 02:28:49;;;;;;;;;10.50;9.75;;;;;17.58;67.88;101259.16;5017115;28;45291;-87
2021/08/24 02:31:30;;;;;;;;;13.25;12.25;;;;;17.55;68.14;101253.19;5017021;28;45373;-89
2021/08/24 02:34:12;;;;;;;;;13.00;11.00;;;;;17.46;67.83;101253.84;5016283;28;47665;-90
2021/08/24 02:36:43;;;;;;;;;16.00;12.75;;;;;17.52;68.30;101264.16;5017048;28;45652;-88
2021/08/24 02:39:19;;;;;;;;;14.50;11.25;;;;;17.42;68.41;101247.84;5016756;28;45224;-90
2021/08/24 02:41:53;;;;;;;;;13.75;12.50;;;;;17.40;68.08;101247.09;5016827;28;45300;-89
2021/08/24 02:44:26;;;;;;;;;14.50;12.50;;;;;17.37;68.20;101241.94;5016949;28;47169;-88
2021/08/24 02:46:53;;;;;;;;;14.00;12.75;;;;;17.40;68.33;101249.78;5016494;28;45599;-87
2021/08/24 02:49:23;;;;;;;;;18.00;14.25;;;;;17.50;68.10;101263.41;5016671;28;45176;-88
2021/08/24 02:51:51;;;;;;;;;15.75;13.25;;;;;17.47;68.72;101264.47;5016735;28;45252;-87
2021/08/24 02:54:25;;;;;;;;;18.75;15.75;;;;;17.47;68.48;101263.63;5016057;28;47889;-88
2021/08/24 02:56:51;;;;;;;;;15.75;14.25;;;;;17.37;68.40;101248.19;5016682;28;45521;-87
2021/08/24 02:59:16;;;;;;;;;17.25;15.00;;;;;17.42;68.91;101258.59;5016602;28;45313;-88
2021/08/24 03:01:47;;;;;;;;;19.00;16.25;;;;;17.43;68.48;101260.31;5019040;28;45210;-88
2021/08/24 03:04:13;;;;;;;;;18.75;15.75;;;;;17.46;68.92;101262.78;5019041;28;45379;-89
2021/08/24 03:06:48;;;;;;;;;27.75;19.50;;;;;17.47;68.92;101267.16;5016722;28;45547;-88
2021/08/24 03:09:18;;;;;;;;;20.75;17.00;;;;;17.45;68.49;101266.44;5016349;28;45310;-89
2021/08/24 03:12:21;;;;;;;;;21.75;17.75;;;;;17.49;68.87;101264.41;5017727;28;45199;-89
2021/08/24 03:15:27;;;;;;;;;19.00;17.00;;;;;17.43;68.98;101245.03;4920877;28;48171;-89
2021/08/24 03:18:08;;;;;;;;;17.00;16.25;;;;;17.50;68.91;101249.97;4863873;29;45780;-88
2021/08/24 03:20:42;;;;;;;;;21.00;19.50;;;;;17.48;68.67;101257.28;4879517;29;45274;-88
2021/08/24 03:23:11;;;;;;;;;22.25;19.50;;;;;17.32;69.01;101228.84;4879807;29;45075;-88
2021/08/24 03:25:40;;;;;;;;;19.75;18.75;;;;;17.37;69.27;101239.25;4863582;29;47968;-88
2021/08/24 03:28:05;;;;;;;;;22.00;19.25;;;;;17.42;69.18;101253.22;4879615;29;45667;-90
2021/08/24 03:30:37;;;;;;;;;22.25;21.25;;;;;17.40;69.21;101247.09;4863902;29;45671;-89
2021/08/24 03:33:02;;;;;;;;;27.75;22.00;;;;;17.39;69.43;101253.44;4879420;29;45274;-87
2021/08/24 03:35:28;;;;;;;;;16.25;15.50;;;;;17.27;69.47;101228.31;4863588;29;47225;-87
2021/08/24 03:37:53;;;;;;;;;27.25;22.50;;;;;17.38;69.40;101247.19;4864122;29;45907;-87
2021/08/24 03:40:18;;;;;;;;;29.25;22.25;;;;;17.30;68.94;101238.88;4863569;29;45345;-89
2021/08/24 03:42:44;;;;;;;;;21.75;17.50;;;;;17.30;69.25;101241.53;4863828;29;45383;-89
2021/08/24 03:45:10;;;;;;;;;22.00;18.50;;;;;17.25;69.58;101235.63;4863508;29;46952;-88
2021/08/24 03:47:35;;;;;;;;;29.00;25.50;;;;;17.27;69.21;101238.22;4879044;29;45460;-89
2021/08/24 03:50:01;;;;;;;;;25.50;21.25;;;;;17.30;69.27;101246.03;4863586;29;45321;-88
2021/08/24 03:52:26;;;;;;;;;25.00;22.75;;;;;17.22;69.75;101234.03;4944289;28;45456;-88
2021/08/24 03:54:52;;;;;;;;;25.75;18.25;;;;;17.29;69.09;101249.69;5005426;28;45299;-88
2021/08/24 03:57:17;;;;;;;;;24.00;23.50;;;;;17.18;69.62;101237.91;5017055;28;45193;-88
2021/08/24 03:59:43;;;;;;;;;24.75;22.75;;;;;17.17;69.24;101252.34;5015302;28;45238;-88
2021/08/24 04:02:08;;;;;;;;;19.50;17.50;;;;;17.20;69.63;101249.41;5015521;28;45196;-89
2021/08/24 04:04:34;;;;;;;;;20.33;20.33;;;;;17.07;69.43;101240.50;5015301;28;47256;-89
2021/08/24 04:07:00;;;;;;;;;25.50;23.00;;;;;17.03;69.48;101242.56;5015194;28;45661;-88
2021/08/24 04:09:25;;;;;;;;;26.50;22.75;;;;;17.06;69.63;101247.72;5015561;28;45214;-88
2021/08/24 04:11:50;;;;;;;;;23.50;21.25;;;;;16.93;69.80;101232.56;5015362;28;45441;-88
2021/08/24 04:14:16;;;;;;;;;25.00;22.25;;;;;16.96;69.51;101245.78;5016417;28;46072;-89
2021/08/24 04:16:41;;;;;;;;;22.00;21.25;;;;;16.84;69.70;101229.53;5016667;28;45253;-89
2021/08/24 04:19:08;;;;;;;;;28.00;23.25;;;;;16.99;70.01;101257.19;5015620;28;45224;-89
2021/08/24 04:21:38;;;;;;;;;23.50;21.75;;;;;16.91;69.89;101246.13;5016017;28;45265;-88
2021/08/24 04:24:04;;;;;;;;;23.50;22.50;;;;;16.97;69.66;101261.78;5016460;28;46433;-90
2021/08/24 04:26:29;;;;;;;;;22.00;20.50;;;;;16.83;69.83;101243.06;5015349;28;46167;-89
2021/08/24 04:28:54;;;;;;;;;23.25;18.50;;;;;16.78;70.02;101240.72;5015324;28;45283;-89
2021/08/24 04:31:21;;;;;;;;;24.75;21.00;;;;;16.76;69.96;101236.44;5016720;28;45214;-89
2021/08/24 04:33:46;;;;;;;;;25.50;21.25;;;;;16.75;69.82;101243.63;5015210;28;47188;-89
2021/08/24 04:36:12;;;;;;;;;21.00;21.00;;;;;16.82;69.99;101268.25;5014874;28;45186;-88
2021/08/24 04:38:37;;;;;;;;;26.00;23.00;;;;;16.60;69.55;101236.66;5015132;28;45248;-89
2021/08/24 04:41:03;;;;;;;;;24.75;22.25;;;;;16.53;70.03;101230.84;5015128;28;45403;-90
2021/08/24 04:43:28;;;;;;;;;19.75;19.75;;;;;16.57;70.27;101251.13;5014505;28;47300;-81
2021/08/24 04:45:54;;;;;;;;;22.50;20.25;;;;;16.71;70.25;101277.03;5015897;28;45285;-82
2021/08/24 04:48:21;;;;;;;;;19.75;19.75;;;;;16.67;70.20;101271.00;5015898;28;45282;-81
2021/08/24 04:50:46;;;;;;;;;23.50;22.00;;;;;16.67;70.57;101280.91;5015941;28;45205;-80
2021/08/24 04:53:12;;;;;;;;;27.50;22.25;;;;;16.68;70.56;101272.72;5015905;28;46664;-83
2021/08/24 04:55:38;;;;;;;;;25.00;22.00;;;;;16.58;70.39;101252.88;5015302;28;45765;-83
2021/08/24 04:58:03;;;;;;;;;18.75;18.50;;;;;16.47;70.24;101242.00;5017143;28;45220;-85
2021/08/24 05:00:31;;;;;;;;;20.00;20.00;;;;;16.69;70.36;101284.34;5017782;28;45324;-83
2021/08/24 05:02:56;;;;;;;;;24.75;21.25;;;;;16.68;69.98;101286.16;5019047;28;46316;-82
2021/08/24 05:05:22;;;;;;;;;22.25;20.00;;;;;16.66;70.31;101288.09;5018731;28;45333;-83
2021/08/24 05:07:48;;;;;;;;;23.50;22.25;;;;;16.51;70.65;101263.16;5019108;28;45251;-82
2021/08/24 05:10:13;;;;;;;;;21.25;20.50;;;;;16.63;70.09;101284.75;5018979;28;45230;-84
2021/08/24 05:12:38;;;;;;;;;25.50;21.50;;;;;16.68;69.77;101296.91;5018466;28;48283;-92
2021/08/24 05:15:05;;;;;;;;;26.75;20.50;;;;;16.67;69.95;101284.44;5022293;28;45181;-88
2021/08/24 05:17:30;;;;;;;;;20.75;20.25;;;;;16.55;69.98;101274.56;5020135;28;45318;-88
2021/08/24 05:19:55;;;;;;;;;20.50;18.00;;;;;16.59;70.26;101285.94;5018171;28;45105;-89
2021/08/24 05:22:21;;;;;;;;;24.75;19.25;;;;;16.44;70.50;101261.88;5017714;28;47140;-90
2021/08/24 05:24:46;;;;;;;;;23.25;18.50;;;;;16.59;70.20;101294.88;5017647;28;45295;-89
2021/08/24 05:27:11;;;;;;;;;21.00;16.50;;;;;16.51;70.27;101273.06;5018055;28;45181;-87
2021/08/24 05:29:37;;;;;;;;;23.50;19.25;;;;;16.56;70.33;101292.41;5019479;28;45024;-87
2021/08/24 05:32:02;;;;;;;;;22.25;20.75;;;;;16.49;70.40;101275.84;5017642;28;47691;-91
2021/08/24 05:34:29;;;;;;;;;21.50;20.25;;;;;16.60;70.37;101298.41;5017776;28;45982;-90
2021/08/24 05:36:55;;;;;;;;;20.00;18.00;;;;;16.51;70.26;101290.00;5018484;28;45211;-88
2021/08/24 05:39:20;;;;;;;;;23.00;21.00;;;;;16.59;70.57;101300.22;5017871;28;45283;-89
2021/08/24 05:41:46;;;;;;;;;24.25;20.00;;;;;16.38;70.46;101264.97;5017618;28;47585;-89
2021/08/24 05:44:11;;;;;;;;;23.00;19.25;;;;;16.62;70.53;101300.00;5017604;28;45215;-89
2021/08/24 05:46:37;;;;;;;;;23.25;20.75;;;;;16.51;70.21;101290.00;5017759;28;45240;-88
2021/08/24 05:49:03;;;;;;;;;22.00;17.75;;;;;16.38;70.30;101264.97;5017922;28;45430;-89
2021/08/24 05:51:28;;;;;;;;;23.25;20.25;;;;;16.27;69.99;101246.91;5017804;28;47164;-89
2021/08/24 05:53:54;;;;;;;;;24.50;22.25;;;;;16.64;70.57;101300.75;5018966;28;45191;-87
2021/08/24 05:56:23;;;;;;;;;19.75;17.50;;;;;16.58;70.31;101278.88;5017721;28;45232;-88
2021/08/24 05:58:50;;;;;;;;;19.25;17.25;;;;;16.63;69.96;101276.69;5019322;28;45131;-89
2021/08/24 06:01:20;;;;;;;;;20.25;16.75;;;;;16.80;69.96;101305.94;5017591;28;48470;-91
2021/08/24 06:03:45;;;;;;;;;27.00;21.25;;;;;16.49;70.09;101242.75;5018884;28;45662;-87
2021/08/24 06:06:24;;;;;;;;;18.75;16.75;;;;;16.93;69.91;101307.78;5017729;28;45168;-88
2021/08/24 06:08:50;;;;;;;;;21.00;19.50;;;;;16.84;69.67;101296.69;5016913;28;45184;-89
2021/08/24 06:11:17;;;;;;;;;18.50;18.50;;;;;16.87;69.93;101288.44;5016779;28;46806;-88
2021/08/24 06:13:43;;;;;;;;;23.75;18.50;;;;;16.78;69.53;101264.91;5018856;28;45209;-89
2021/08/24 06:16:08;;;;;;;;;17.75;17.75;;;;;16.98;69.36;101270.72;5017664;28;45357;-89
2021/08/24 06:18:35;;;;;;;;;22.75;17.50;;;;;17.18;69.63;101297.00;5017569;28;45124;-89
2021/08/24 06:21:01;;;;;;;;;18.25;18.25;;;;;17.10;69.01;101258.25;5018542;28;45623;-89
2021/08/24 06:23:26;;;;;;;;;22.00;15.25;;;;;17.38;69.27;101294.72;5017317;28;45101;-87
2021/08/24 06:25:51;;;;;;;;;21.50;20.50;;;;;17.41;68.42;101287.31;5018845;28;45136;-87
2021/08/24 06:28:18;;;;;;;;;24.00;20.50;;;;;17.60;68.56;101299.41;5018726;28;45174;-87
2021/08/24 06:30:43;;;;;;;;;22.00;20.25;;;;;17.46;67.90;101260.09;5018695;28;45719;-90
2021/08/24 06:33:09;;;;;;;;;18.00;16.75;;;;;17.82;67.87;101297.84;5016874;28;45897;-88
2021/08/24 06:35:35;;;;;;;;;19.50;17.25;;;;;17.89;67.67;101299.94;5017522;28;45264;-88
2021/08/24 06:38:00;;;;;;;;;17.50;16.25;;;;;18.01;67.34;101298.19;5017268;28;45159;-88
2021/08/24 06:40:25;;;;;;;;;21.00;16.75;;;;;18.11;66.53;101291.16;5018420;28;45401;-89
2021/08/24 06:42:52;;;;;;;;;18.75;16.75;;;;;18.34;67.01;101303.81;5016888;28;45239;-89
2021/08/24 06:45:28;;;;;;;;;18.25;16.50;;;;;18.49;66.66;101309.88;5017479;28;45207;-87
2021/08/24 06:47:53;;;;;;;;;17.75;15.75;;;;;18.62;66.40;101303.41;5019805;28;45215;-87
2021/08/24 06:50:21;;;;;;;;;19.50;17.00;;;;;18.78;65.65;101307.59;5018891;28;47226;-89
2021/08/24 06:52:47;;;;;;;;;23.75;19.75;;;;;18.87;65.53;101300.66;5015969;28;45636;-87
2021/08/24 06:55:14;;;;;;;;;16.25;15.25;;;;;18.94;65.07;101315.38;5016580;28;45244;-89
2021/08/24 06:57:41;;;;;;;;;17.00;16.00;;;;;19.05;65.01;101314.53;5017155;28;45356;-88
2021/08/24 07:00:13;;;;;;;;;17.00;16.00;;;;;18.95;64.57;101276.69;5017850;28;45428;-88
2021/08/24 07:02:40;;;;;;;;;15.25;14.75;;;;;19.07;64.17;101274.84;5016758;28;45269;-89
2021/08/24 07:05:06;;;;;;;;;17.50;14.25;;;;;19.11;64.05;101263.72;5017932;28;45283;-89
2021/08/24 07:07:31;;;;;;;;;16.00;14.50;;;;;19.58;63.63;101316.59;5016826;28;45396;-88
2021/08/24 07:09:57;;;;;;;;;21.50;17.50;;;;;19.63;63.10;101300.91;5016554;28;47044;-88
2021/08/24 07:12:22;;;;;;;;;21.25;18.75;;;;;19.79;63.06;101316.72;5016245;28;45249;-88
2021/08/24 07:14:48;;;;;;;;;16.00;14.50;;;;;19.83;62.46;101307.38;5017824;28;45149;-88
2021/08/24 07:17:15;;;;;;;;;19.00;17.75;;;;;19.91;62.52;101296.81;5016674;28;45280;-89
2021/08/24 07:19:40;;;;;;;;;16.75;16.75;;;;;20.02;61.95;101298.59;5017697;28;45653;-87
2021/08/24 07:22:05;;;;;;;;;16.25;14.75;;;;;19.91;61.84;101261.72;5015980;28;45262;-88
2021/08/24 07:24:31;;;;;;;;;19.50;18.25;;;;;20.30;61.84;101307.94;5016534;28;45322;-88
2021/08/24 07:26:56;;;;;;;;;20.50;18.00;;;;;20.35;62.25;101288.63;5017854;28;45244;-90
2021/08/24 07:29:21;;;;;;;;;17.25;15.00;;;;;20.53;61.57;101292.47;5017547;28;46437;-88
2021/08/24 07:31:47;;;;;;;;;17.75;16.50;;;;;20.70;61.13;101292.91;5016136;28;45740;-89
2021/08/24 07:34:13;;;;;;;;;18.50;16.75;;;;;20.87;60.81;101294.13;5016332;28;45167;-89
2021/08/24 07:36:38;;;;;;;;;18.75;15.75;;;;;21.12;60.51;101306.34;5016029;28;45506;-88
2021/08/24 07:39:05;;;;;;;;;18.50;16.25;;;;;21.00;59.92;101264.19;5015900;28;47104;-88
2021/08/24 07:41:30;;;;;;;;;18.50;17.25;;;;;21.34;59.52;101286.34;5016278;28;45390;-88
2021/08/24 07:43:55;;;;;;;;;17.75;16.50;;;;;21.66;58.95;101306.13;5016470;28;45856;-88
2021/08/24 07:46:21;;;;;;;;;15.50;13.25;;;;;21.73;58.62;101291.03;5016518;28;45207;-88
2021/08/24 07:48:46;;;;;;;;;18.50;15.25;;;;;21.85;58.79;101273.69;5015974;28;48044;-89
2021/08/24 07:51:12;;;;;;;;;16.00;14.50;;;;;22.27;58.00;101309.59;5017390;28;45203;-89
2021/08/24 07:53:37;;;;;;;;;19.50;18.25;;;;;22.50;56.46;101300.22;5015691;28;45269;-88
2021/08/24 07:56:04;;;;;;;;;18.25;15.25;;;;;22.56;56.35;101305.06;5016207;28;45346;-88
2021/08/24 07:58:30;;;;;;;;;15.25;14.50;;;;;22.59;56.97;101295.78;5015928;28;47294;-89
2021/08/24 08:00:56;;;;;;;;;15.00;14.75;;;;;22.53;56.55;101272.84;5016047;28;45176;-89
2021/08/24 08:03:21;;;;;;;;;18.00;16.25;;;;;22.70;55.87;101275.78;5016019;28;45224;-90
2021/08/24 08:05:47;;;;;;;;;16.25;16.25;;;;;22.87;55.14;101283.16;5017303;28;45231;-89
2021/08/24 08:08:12;;;;;;;;;16.75;15.50;;;;;22.88;54.60;101282.13;5015902;28;47449;-89
2021/08/24 08:10:38;;;;;;;;;18.50;15.75;;;;;22.84;55.20;101269.88;5015866;28;45142;-89
2021/08/24 08:13:04;;;;;;;;;18.75;15.75;;;;;22.82;54.16;101260.22;5016011;28;45098;-88
2021/08/24 08:15:33;;;;;;;;;18.00;14.50;;;;;22.97;54.41;101284.97;5015587;28;45236;-89
2021/08/24 08:18:00;;;;;;;;;15.25;14.50;;;;;22.94;54.38;101277.97;5015696;28;47099;-88
2021/08/24 08:20:26;;;;;;;;;14.25;13.50;;;;;23.15;53.83;101285.09;5015632;28;45526;-88
2021/08/24 08:22:51;;;;;;;;;13.50;11.00;;;;;23.41;53.71;101299.63;5015703;28;45229;-89
2021/08/24 08:25:16;;;;;;;;;12.25;12.25;;;;;23.55;53.43;101290.13;5015799;28;45407;-88
2021/08/24 08:27:42;;;;;;;;;11.50;10.50;;;;;23.64;52.42;101269.38;5015731;28;47923;-88
2021/08/24 08:30:09;;;;;;;;;14.50;11.50;;;;;24.13;51.79;101305.19;5015682;28;45189;-88
2021/08/24 08:32:38;;;;;;;;;12.75;11.25;;;;;24.34;51.42;101309.44;5016077;28;45286;-90
2021/08/24 08:35:04;;;;;;;;;11.50;10.25;;;;;24.54;51.07;101298.41;5020550;28;45198;-88
2021/08/24 08:37:29;;;;;;;;;16.50;11.50;;;;;24.79;50.86;101303.03;5019109;28;47567;-88
2021/08/24 08:39:55;;;;;;;;;9.00;7.25;;;;;25.03;50.19;101290.59;5018877;28;45254;-88
2021/08/24 08:42:26;;;;;;;;;11.75;8.50;;;;;25.39;50.08;101295.03;5019156;28;45164;-89
2021/08/24 08:44:57;;;;;;;;;10.00;8.50;;;;;25.72;49.13;101306.88;5018865;28;45216;-89
2021/08/24 08:47:38;;;;;;;;;10.25;10.00;;;;;25.99;47.82;101307.59;5019030;28;47371;-90
2021/08/24 08:50:25;;;;;;;;;10.50;8.75;;;;;26.16;47.63;101293.00;5020232;28;45506;-89
2021/08/24 08:52:53;;;;;;;;;8.00;8.00;;;;;26.45;47.07;101301.69;5019020;28;45302;-89
2021/08/24 08:55:39;;;;;;;;;7.75;7.75;;;;;26.61;46.67;101287.19;5018896;28;45192;-89
2021/08/24 08:58:22;;;;;;;;;7.25;6.25;;;;;26.82;46.07;101292.13;5020116;28;45382;-88
2021/08/24 09:00:54;;;;;;;;;8.50;6.50;;;;;26.97;45.69;101295.84;5018548;28;45401;-88
2021/08/24 09:03:50;;;;;;;;;9.00;7.50;;;;;27.21;44.95;101302.25;5020030;28;45131;-88
2021/08/24 09:06:17;;;;;;;;;8.00;6.75;;;;;27.36;44.09;101292.34;5018660;28;45133;-89
2021/08/24 09:08:43;;;;;;;;;6.00;4.50;;;;;27.51;43.56;101280.66;5018495;28;48358;-88
2021/08/24 09:11:10;;;;;;;;;6.25;6.00;;;;;27.66;43.32;101272.53;5019286;28;45451;-90
2021/08/24 09:13:54;;;;;;;;;5.00;5.00;;;;;28.05;42.56;101285.28;5018284;28;45171;-88
2021/08/24 09:16:30;;;;;;;;;6.00;6.00;;;;;28.20;42.50;101290.78;5018442;28;45189;-89
2021/08/24 09:19:15;;;;;;;;;6.00;6.00;;;;;28.23;41.97;101284.94;5018141;28;47376;-89
2021/08/24 09:21:45;;;;;;;;;7.00;6.00;;;;;28.39;40.64;101292.19;5019802;28;45192;-90
2021/08/24 09:24:18;;;;;;;;;5.50;5.50;;;;;28.51;41.73;101295.31;5018571;28;45157;-90
2021/08/24 09:27:11;;;;;;;;;6.50;5.50;;;;;28.64;41.42;101291.97;5018465;28;45125;-91
2021/08/24 09:29:41;;;;;;;;;5.00;5.00;;;;;28.63;41.17;101287.53;5017991;28;46166;-89
2021/08/24 09:32:09;;;;;;;;;5.00;5.00;;;;;28.70;40.21;101278.41;5019475;28;45229;-89
2021/08/24 09:34:40;;;;;;;;;5.00;4.75;;;;;28.89;40.39;101276.16;5019443;28;45323;-89
2021/08/24 09:37:07;;;;;;;;;5.75;5.75;;;;;29.17;39.69;101295.47;5019669;28;45198;-88
2021/08/24 09:40:00;;;;;;;;;3.50;3.50;;;;;29.43;39.12;101286.78;5018961;28;46135;-88
2021/08/24 09:42:42;;;;;;;;;5.75;5.75;;;;;29.64;38.59;101282.38;5017861;28;45233;-89
2021/08/24 09:45:27;;;;;;;;;4.50;4.50;;;;;29.72;38.52;101290.50;5017847;28;45243;-90
2021/08/24 09:48:15;;;;;;;;;5.25;4.25;;;;;29.87;37.77;101278.66;5018140;28;45372;-89
2021/08/24 09:50:43;;;;;;;;;3.75;3.75;;;;;30.09;36.90;101280.34;5019369;28;45613;-90
2021/08/24 09:53:28;;;;;;;;;3.50;3.50;;;;;30.17;35.44;101270.28;5019355;28;45444;-90
2021/08/24 09:55:53;;;;;;;;;4.75;2.75;;;;;30.03;35.08;101283.91;5018979;28;45185;-88
2021/08/24 09:58:48;;;;;;;;;4.25;4.00;;;;;29.77;35.79;101273.47;5019338;28;45152;-88
2021/08/24 10:01:16;;;;;;;;;6.25;4.00;;;;;29.52;36.65;101267.50;5001938;28;46168;-90
2021/08/24 10:04:03;;;;;;;;;4.50;3.25;;;;;29.56;36.18;101264.19;5018841;28;45279;-89
2021/08/24 10:06:35;;;;;;;;;5.50;4.25;;;;;29.43;35.64;101264.88;5018011;28;45212;-90
2021/08/24 10:09:17;;;;;;;;;5.50;5.00;;;;;29.10;35.89;101259.81;5019237;28;45225;-89
2021/08/24 10:11:44;;;;;;;;;7.25;4.25;;;;;28.95;36.31;101266.34;5017487;28;48219;-89
2021/08/24 10:14:20;;;;;;;;;4.00;4.00;;;;;28.96;36.77;101281.69;5019172;28;45601;-88
2021/08/24 10:16:47;;;;;;;;;3.50;3.25;;;;;28.85;36.16;101259.25;5019185;28;45170;-88
2021/08/24 10:19:13;;;;;;;;;3.75;3.75;;;;;28.72;36.48;101262.63;5019198;28;45179;-89
2021/08/24 10:21:43;;;;;;;;;4.33;4.33;;;;;28.53;36.36;101261.28;5018890;28;46506;-90
2021/08/24 10:24:14;;;;;;;;;8.25;4.50;;;;;28.40;36.33;101256.44;5017200;28;45428;-90
2021/08/24 10:26:41;;;;;;;;;4.00;3.50;;;;;28.21;37.35;101241.41;5018958;28;45218;-89
2021/08/24 10:29:10;;;;;;;;;3.75;3.75;;;;;28.23;37.40;101260.34;5018954;28;45389;-88
2021/08/24 10:31:40;;;;;;;;;5.50;4.75;;;;;28.29;36.41;101239.63;5020015;28;45402;-89
2021/08/24 10:34:28;;;;;;;;;3.25;3.25;;;;;28.50;35.40;101255.31;5017893;28;45185;-88
2021/08/24 10:37:13;;;;;;;;;6.00;5.00;;;;;28.61;34.14;101248.56;5017470;28;45077;-89
2021/08/24 10:39:38;;;;;;;;;4.25;4.25;;;;;28.32;34.32;101250.19;5017283;28;45428;-89
2021/08/24 10:42:06;;;;;;;;;5.25;5.25;;;;;28.06;35.94;101254.16;5018630;28;45343;-88
2021/08/24 10:44:47;;;;;;;;;4.75;4.75;;;;;27.66;35.73;101226.97;5016999;28;45308;-88
2021/08/24 10:47:24;;;;;;;;;4.00;4.00;;;;;27.67;36.32;101255.13;5017184;28;45200;-87
2021/08/24 10:49:52;;;;;;;;;6.00;5.00;;;;;27.56;36.20;101253.63;5017131;28;45145;-89
2021/08/24 10:52:36;;;;;;;;;5.75;4.50;;;;;27.43;36.10;101264.31;5016879;28;46745;-91
2021/08/24 10:55:11;;;;;;;;;4.50;4.50;;;;;27.03;36.38;101240.53;5016367;28;45331;-88
2021/08/24 10:57:42;;;;;;;;;4.75;4.75;;;;;26.94;37.21;101249.81;5017060;28;45410;-89
2021/08/24 11:00:23;;;;;;;;;3.00;3.00;;;;;27.07;35.97;101264.78;5016889;28;45180;-87
2021/08/24 11:03:19;;;;;;;;;7.00;5.00;;;;;27.29;35.89;101258.53;5016512;28;47502;-88
2021/08/24 11:05:52;;;;;;;;;5.25;5.00;;;;;27.44;35.49;101257.81;5018079;28;45359;-90
2021/08/24 11:08:30;;;;;;;;;5.50;5.00;;;;;27.34;36.29;101261.59;5018242;28;45203;-90
2021/08/24 11:11:12;;;;;;;;;6.00;4.25;;;;;27.09;37.02;101240.88;5018160;28;45140;-88
2021/08/24 11:13:38;;;;;;;;;5.75;5.00;;;;;26.97;36.76;101251.34;5016490;28;47386;-90
2021/08/24 11:16:42;;;;;;;;;6.25;3.25;;;;;26.98;37.29;101242.97;5017812;28;45262;-90
2021/08/24 11:19:36;;;;;;;;;3.50;3.50;;;;;27.49;35.53;101239.00;4976123;28;45440;-90
2021/08/24 11:22:26;;;;;;;;;3.75;3.75;;;;;27.93;35.32;101242.97;4976408;28;45316;-88
2021/08/24 11:25:12;;;;;;;;;2.25;2.25;;;;;28.01;35.39;101226.56;4967544;28;48743;-89
2021/08/24 11:28:35;;;;;;;;;4.75;4.25;;;;;28.19;35.11;101234.41;4976098;28;46007;-89
2021/08/24 11:31:09;;;;;;;;;3.00;3.00;;;;;28.28;34.17;101218.81;4918177;28;45122;-89